createdAt,value
2023-02-23T00:01:29.396Z,95733.47
2023-02-23T00:03:59.567Z,95734.41
2023-02-23T00:06:33.415Z,95738.03
2023-02-23T00:09:02.260Z,95732.03
2023-02-23T00:11:31.279Z,95727.78
2023-02-23T00:14:01.551Z,95731.84
2023-02-23T00:16:32.873Z,95728.19
2023-02-23T00:19:02.904Z,95721.38
2023-02-23T00:21:35.514Z,95729.63
2023-02-23T00:24:06.625Z,95725.34
2023-02-23T00:26:36.806Z,95714.06
2023-02-23T00:29:08.120Z,95725.53
2023-02-23T00:31:38.913Z,95720.75
2023-02-23T00:34:08.198Z,95721.59
2023-02-23T00:36:39.458Z,95722.78
2023-02-23T00:39:29.824Z,95719.44
2023-02-23T00:42:03.461Z,95717.72
2023-02-23T00:44:34.079Z,95725.94
2023-02-23T00:47:03.285Z,95727.06
2023-02-23T00:49:31.958Z,95722.28
2023-02-23T00:52:02.408Z,95730.22
2023-02-23T00:54:31.132Z,95733.03
2023-02-23T00:57:00.198Z,95726.44
2023-02-23T00:59:31.041Z,95721.56
2023-02-23T01:01:59.688Z,95726.72
2023-02-23T01:04:30.263Z,95730.06
2023-02-23T01:06:59.001Z,95725.72
2023-02-23T01:09:29.625Z,95728.34
2023-02-23T01:12:01.778Z,95726.41
2023-02-23T01:14:31.525Z,95730.66
2023-02-23T01:17:00.500Z,95727.00
2023-02-23T01:19:29.233Z,95724.28
2023-02-23T01:21:57.843Z,95722.25
2023-02-23T01:24:26.841Z,95719.72
2023-02-23T01:26:56.841Z,95721.34
2023-02-23T01:29:26.127Z,95719.59
2023-02-23T01:32:15.495Z,95717.06
2023-02-23T01:34:44.297Z,95716.28
2023-02-23T01:37:15.968Z,95719.44
2023-02-23T01:39:47.666Z,95715.13
2023-02-23T01:42:17.576Z,95710.06
2023-02-23T01:45:22.366Z,95721.97
2023-02-23T01:47:51.629Z,95708.44
2023-02-23T01:50:30.557Z,95706.72
2023-02-23T01:52:59.635Z,95710.16
2023-02-23T01:55:30.157Z,95710.06
2023-02-23T01:58:05.837Z,95710.25
2023-02-23T02:00:47.488Z,95707.91
2023-02-23T02:03:22.900Z,95698.75
2023-02-23T02:05:52.649Z,95696.31
2023-02-23T02:08:24.229Z,95696.31
2023-02-23T02:10:56.268Z,95692.06
2023-02-23T02:13:29.630Z,95695.22
2023-02-23T02:16:20.607Z,95695.13
2023-02-23T02:19:06.238Z,95693.41
2023-02-23T02:22:20.145Z,95689.41
2023-02-23T02:25:27.577Z,95697.03
2023-02-23T02:28:18.287Z,95684.44
2023-02-23T02:31:11.960Z,95688.78
2023-02-23T02:34:12.126Z,95685.13
2023-02-23T02:37:09.856Z,95687.03
2023-02-23T02:39:46.903Z,95684.00
2023-02-23T02:42:23.126Z,95676.47
2023-02-23T02:44:56.447Z,95677.28
2023-02-23T02:47:31.813Z,95680.63
2023-02-23T02:50:06.946Z,95691.09
2023-02-23T02:52:42.382Z,95688.75
2023-02-23T02:55:14.612Z,95687.72
2023-02-23T02:57:47.085Z,95692.78
2023-02-23T03:00:36.900Z,95696.69
2023-02-23T03:03:23.052Z,95690.28
2023-02-23T03:06:10.707Z,95696.41
2023-02-23T03:09:02.757Z,95693.66
2023-02-23T03:11:54.131Z,95697.81
2023-02-23T03:15:08.213Z,95700.69
2023-02-23T03:18:02.385Z,95698.97
2023-02-23T03:20:59.441Z,95702.19
2023-02-23T03:23:49.434Z,95687.56
2023-02-23T03:26:40.940Z,95707.78
2023-02-23T03:29:31.973Z,95708.50
2023-02-23T03:32:30.330Z,95697.97
2023-02-23T03:35:20.883Z,95704.06
2023-02-23T03:38:12.716Z,95701.00
2023-02-23T03:41:01.298Z,95716.50
2023-02-23T03:43:52.654Z,95709.50
2023-02-23T03:46:39.538Z,95707.44
2023-02-23T03:49:28.682Z,95708.78
2023-02-23T03:52:18.969Z,95711.22
2023-02-23T03:55:07.738Z,95716.09
2023-02-23T03:57:54.670Z,95717.53
2023-02-23T04:00:46.440Z,95711.50
2023-02-23T04:03:35.525Z,95717.84
2023-02-23T04:06:22.791Z,95725.47
2023-02-23T04:09:10.140Z,95721.16
2023-02-23T04:12:04.691Z,95721.06
2023-02-23T04:14:37.033Z,95720.78
2023-02-23T04:17:07.078Z,95718.13
2023-02-23T04:19:35.698Z,95715.81
2023-02-23T04:22:04.254Z,95711.63
2023-02-23T04:24:33.099Z,95707.34
2023-02-23T04:27:03.131Z,95711.50
2023-02-23T04:29:32.039Z,95716.59
2023-02-23T04:32:00.657Z,95717.63
2023-02-23T04:34:30.570Z,95717.53
2023-02-23T04:36:59.243Z,95714.78
2023-02-23T04:39:27.859Z,95717.94
2023-02-23T04:41:56.346Z,95725.44
2023-02-23T04:44:25.357Z,95722.72
2023-02-23T04:46:53.876Z,95723.41
2023-02-23T04:49:22.214Z,95718.94
2023-02-23T04:51:52.403Z,95711.19
2023-02-23T04:54:21.094Z,95721.38
2023-02-23T04:56:49.643Z,95720.59
2023-02-23T04:59:18.622Z,95716.41
2023-02-23T05:01:47.648Z,95713.13
2023-02-23T05:04:16.599Z,95721.81
2023-02-23T05:06:45.259Z,95712.72
2023-02-23T05:09:15.523Z,95713.66
2023-02-23T05:11:44.150Z,95709.28
2023-02-23T05:14:12.813Z,95704.94
2023-02-23T05:16:41.451Z,95704.59
2023-02-23T05:19:10.280Z,95703.50
2023-02-23T05:21:38.846Z,95703.38
2023-02-23T05:24:07.941Z,95705.81
2023-02-23T05:26:38.193Z,95709.09
2023-02-23T05:29:07.549Z,95716.00
2023-02-23T05:31:36.262Z,95718.34
2023-02-23T05:34:05.465Z,95705.28
2023-02-23T05:36:33.743Z,95706.72
2023-02-23T05:39:02.445Z,95702.47
2023-02-23T05:41:31.183Z,95695.53
2023-02-23T05:44:01.459Z,95703.97
2023-02-23T05:46:30.877Z,95706.50
2023-02-23T05:49:01.324Z,95712.31
2023-02-23T05:51:48.256Z,95709.16
2023-02-23T05:54:16.560Z,95708.56
2023-02-23T05:57:44.545Z,95710.09
2023-02-23T06:00:15.474Z,95715.28
2023-02-23T06:02:44.157Z,95716.41
2023-02-23T06:05:14.363Z,95710.28
2023-02-23T06:07:47.090Z,95717.63
2023-02-23T06:10:18.700Z,95714.66
2023-02-23T06:12:50.260Z,95712.72
2023-02-23T06:15:20.828Z,95716.69
2023-02-23T06:17:49.398Z,95716.56
2023-02-23T06:20:20.674Z,95714.84
2023-02-23T06:22:49.414Z,95724.22
2023-02-23T06:25:18.549Z,95727.25
2023-02-23T06:27:49.936Z,95734.59
2023-02-23T06:30:20.864Z,95729.91
2023-02-23T06:32:49.500Z,95733.97
2023-02-23T06:35:18.459Z,95724.72
2023-02-23T06:37:47.024Z,95724.59
2023-02-23T06:40:15.895Z,95739.47
2023-02-23T06:42:44.793Z,95742.53
2023-02-23T06:45:15.496Z,95744.56
2023-02-23T06:47:46.259Z,95745.16
2023-02-23T06:50:14.736Z,95750.88
2023-02-23T06:52:44.234Z,95745.16
2023-02-23T06:55:13.870Z,95749.00
2023-02-23T06:57:42.814Z,95748.06
2023-02-23T07:00:12.850Z,95746.97
2023-02-23T07:02:41.627Z,95743.66
2023-02-23T07:05:12.174Z,95755.03
2023-02-23T07:07:40.980Z,95749.75
2023-02-23T07:10:10.781Z,95756.13
2023-02-23T07:12:39.547Z,95759.75
2023-02-23T07:15:09.395Z,95754.03
2023-02-23T07:17:38.352Z,95753.00
2023-02-23T07:20:07.578Z,95757.75
2023-02-23T07:22:40.117Z,95766.38
2023-02-23T07:25:11.915Z,95758.38
2023-02-23T07:27:42.462Z,95770.38
2023-02-23T07:30:12.830Z,95763.13
2023-02-23T07:32:41.298Z,95766.81
2023-02-23T07:35:10.601Z,95761.28
2023-02-23T07:37:40.917Z,95762.78
2023-02-23T07:40:11.192Z,95767.91
2023-02-23T07:42:40.119Z,95766.41
2023-02-23T07:45:33.487Z,95764.91
2023-02-23T07:48:02.098Z,95769.59
2023-02-23T07:50:30.603Z,95767.28
2023-02-23T07:53:01.480Z,95766.38
2023-02-23T07:55:32.620Z,95767.56
2023-02-23T07:58:01.801Z,95762.53
2023-02-23T08:00:30.399Z,95762.88
2023-02-23T08:03:01.672Z,95765.78
2023-02-23T08:05:30.197Z,95758.00
2023-02-23T08:08:06.052Z,95769.19
2023-02-23T08:10:34.671Z,95779.63
2023-02-23T08:13:05.747Z,95782.06
2023-02-23T08:15:38.424Z,95778.59
2023-02-23T08:18:07.902Z,95777.31
2023-02-23T08:21:30.654Z,95778.00
2023-02-23T08:24:02.832Z,95775.09
2023-02-23T08:26:33.238Z,95773.75
2023-02-23T08:29:01.990Z,95774.31
2023-02-23T08:31:30.567Z,95772.91
2023-02-23T08:34:01.603Z,95783.22
2023-02-23T08:36:31.458Z,95774.59
2023-02-23T08:39:02.515Z,95773.00
2023-02-23T08:41:32.509Z,95774.13
2023-02-23T08:44:00.993Z,95789.28
2023-02-23T08:46:29.658Z,95788.81
2023-02-23T08:48:58.760Z,95787.66
2023-02-23T08:51:29.934Z,95794.25
2023-02-23T08:53:58.605Z,95789.66
2023-02-23T08:56:28.706Z,95788.19
2023-02-23T08:58:59.948Z,95788.31
2023-02-23T09:01:28.910Z,95784.00
2023-02-23T09:03:58.148Z,95798.22
2023-02-23T09:06:31.065Z,95788.84
2023-02-23T09:09:00.032Z,95781.00
2023-02-23T09:11:32.944Z,95789.00
2023-02-23T09:14:01.730Z,95792.97
2023-02-23T09:16:30.269Z,95785.50
2023-02-23T09:19:01.625Z,95791.47
2023-02-23T09:21:34.500Z,95788.13
2023-02-23T09:24:03.058Z,95789.75
2023-02-23T09:26:33.529Z,95796.16
2023-02-23T09:29:02.674Z,95754.66
2023-02-23T09:31:31.035Z,95793.06
2023-02-23T09:34:01.910Z,95790.94
2023-02-23T09:36:33.387Z,95795.25
2023-02-23T09:39:03.389Z,95795.31
2023-02-23T09:41:59.729Z,95794.41
2023-02-23T09:44:36.092Z,95788.69
2023-02-23T09:47:14.023Z,95790.63
2023-02-23T09:49:44.110Z,95788.16
2023-02-23T09:52:20.111Z,95791.41
2023-02-23T09:54:48.911Z,95787.34
2023-02-23T09:57:21.754Z,95787.53
2023-02-23T10:00:03.001Z,95788.63
2023-02-23T10:02:36.301Z,95783.22
2023-02-23T10:05:08.526Z,95788.25
2023-02-23T10:07:44.792Z,95791.38
2023-02-23T10:10:23.931Z,95791.72
2023-02-23T10:13:02.008Z,95783.03
2023-02-23T10:15:38.465Z,95777.81
2023-02-23T10:18:16.612Z,95775.19
2023-02-23T10:20:51.155Z,95785.78
2023-02-23T10:23:29.664Z,95771.78
2023-02-23T10:26:19.010Z,95772.63
2023-02-23T10:28:49.542Z,95768.56
2023-02-23T10:31:28.985Z,95770.34
2023-02-23T10:33:59.575Z,95770.34
2023-02-23T10:36:38.791Z,95780.19
2023-02-23T10:39:08.679Z,95779.16
2023-02-23T10:41:38.762Z,95763.34
2023-02-23T10:47:14.664Z,95774.59
2023-02-23T10:52:59.530Z,95753.59
2023-02-23T10:55:32.496Z,95758.41
2023-02-23T10:58:07.816Z,95758.78
2023-02-23T11:00:40.352Z,95753.41
2023-02-23T11:03:20.110Z,95753.13
2023-02-23T11:05:53.197Z,95754.44
2023-02-23T11:08:30.664Z,95759.38
2023-02-23T11:11:09.181Z,95751.22
2023-02-23T11:13:40.855Z,95743.19
2023-02-23T11:16:13.590Z,95746.16
2023-02-23T11:18:44.403Z,95730.09
2023-02-23T11:21:15.305Z,95731.25
2023-02-23T11:23:44.717Z,95732.97
2023-02-23T11:26:32.958Z,95732.88
2023-02-23T11:29:06.030Z,95728.41
2023-02-23T11:31:45.084Z,95722.34
2023-02-23T11:34:23.276Z,95728.19
2023-02-23T11:37:01.646Z,95721.16
2023-02-23T11:39:30.391Z,95716.28
2023-02-23T11:42:33.734Z,95711.28
2023-02-23T11:45:07.296Z,95706.97
2023-02-23T11:48:09.158Z,95701.50
2023-02-23T11:50:38.696Z,95703.09
2023-02-23T11:53:13.252Z,95704.41
2023-02-23T11:55:48.551Z,95689.25
2023-02-23T11:58:24.879Z,95692.25
2023-02-23T12:00:58.553Z,95695.16
2023-02-23T12:03:30.462Z,95687.91
2023-02-23T12:06:02.639Z,95689.88
2023-02-23T12:08:39.440Z,95678.22
2023-02-23T12:11:12.846Z,95681.16
2023-02-23T12:13:44.414Z,95673.72
2023-02-23T12:16:19.429Z,95679.38
2023-02-23T12:18:54.568Z,95677.75
2023-02-23T12:21:33.005Z,95678.00
2023-02-23T12:24:12.003Z,95667.41
2023-02-23T12:26:47.807Z,95661.16
2023-02-23T12:29:21.922Z,95664.19
2023-02-23T12:31:53.880Z,95656.25
2023-02-23T12:34:38.952Z,95658.50
2023-02-23T12:37:23.052Z,95659.41
2023-02-23T12:39:55.173Z,95652.66
2023-02-23T12:42:28.167Z,95655.56
2023-02-23T12:45:03.105Z,95656.47
2023-02-23T12:47:41.110Z,95658.31
2023-02-23T12:50:14.308Z,95646.69
2023-02-23T12:52:48.324Z,95641.59
2023-02-23T12:55:26.269Z,95641.59
2023-02-23T12:57:59.906Z,95640.41
2023-02-23T13:00:44.100Z,95639.34
2023-02-23T13:03:33.206Z,95642.06
2023-02-23T13:06:07.720Z,95642.56
2023-02-23T13:08:48.750Z,95637.25
2023-02-23T13:11:29.838Z,95636.28
2023-02-23T13:14:01.659Z,95640.94
2023-02-23T13:16:44.694Z,95636.56
2023-02-23T13:19:19.707Z,95643.69
2023-02-23T13:21:55.366Z,95640.78
2023-02-23T13:24:26.767Z,95654.34
2023-02-23T13:27:00.972Z,95644.06
2023-02-23T13:29:36.076Z,95642.75
2023-02-23T13:32:06.879Z,95648.06
2023-02-23T13:34:41.752Z,95647.22
2023-02-23T13:37:16.202Z,95635.69
2023-02-23T13:40:11.462Z,95644.56
2023-02-23T13:46:56.726Z,95641.06
2023-02-23T13:49:36.172Z,95647.94
2023-02-23T13:52:19.083Z,95641.41
2023-02-23T13:54:56.551Z,95648.19
2023-02-23T13:57:26.661Z,95642.53
2023-02-23T13:59:55.366Z,95650.56
2023-02-23T14:02:35.670Z,95644.88
2023-02-23T14:05:06.990Z,95641.53
2023-02-23T14:07:43.082Z,95639.63
2023-02-23T14:10:21.235Z,95636.59
2023-02-23T14:13:08.348Z,95631.25
2023-02-23T14:15:46.346Z,95635.56
2023-02-23T14:18:32.193Z,95581.97
2023-02-23T14:21:07.862Z,95632.59
2023-02-23T14:23:52.874Z,95626.56
2023-02-23T14:26:44.308Z,95627.59
2023-02-23T14:29:24.569Z,95627.44
2023-02-23T14:32:06.117Z,95635.19
2023-02-23T14:34:49.212Z,95639.72
2023-02-23T14:37:26.540Z,95631.59
2023-02-23T14:40:01.655Z,95635.25
2023-02-23T14:42:31.006Z,95628.91
2023-02-23T14:45:05.658Z,95640.63
2023-02-23T14:47:43.430Z,95632.06
2023-02-23T14:50:19.227Z,95641.84
2023-02-23T14:54:05.143Z,95636.22
2023-02-23T14:56:44.006Z,95640.56
2023-02-23T14:59:21.140Z,95639.56
2023-02-23T15:01:50.988Z,95644.03
2023-02-23T15:04:22.826Z,95649.41
2023-02-23T15:06:54.886Z,95640.06
2023-02-23T15:09:32.333Z,95634.22
2023-02-23T15:12:08.450Z,95639.34
2023-02-23T15:14:39.286Z,95639.34
2023-02-23T15:17:08.983Z,95639.16
2023-02-23T15:19:39.514Z,95639.72
2023-02-23T15:22:08.113Z,95633.84
2023-02-23T15:24:43.925Z,95636.03
2023-02-23T15:27:23.033Z,95636.34
2023-02-23T15:29:51.734Z,95639.59
2023-02-23T15:32:22.246Z,95596.69
2023-02-23T15:34:50.852Z,95632.84
2023-02-23T15:37:28.743Z,95635.66
2023-02-23T15:40:00.219Z,95644.75
2023-02-23T15:42:37.069Z,95632.72
2023-02-23T15:45:16.660Z,95635.03
2023-02-23T15:47:46.022Z,95628.13
2023-02-23T15:50:24.744Z,95636.38
2023-02-23T15:53:02.745Z,95637.47
2023-02-23T15:56:32.422Z,95628.66
2023-02-23T15:59:05.147Z,95639.34
2023-02-23T16:01:34.437Z,95634.22
2023-02-23T16:04:08.237Z,95634.88
2023-02-23T16:06:39.873Z,95631.78
2023-02-23T16:09:29.397Z,95639.63
2023-02-23T16:12:02.438Z,95626.66
2023-02-23T16:14:34.874Z,95627.06
2023-02-23T16:17:11.401Z,95635.56
2023-02-23T16:19:42.021Z,95630.56
2023-02-23T16:22:28.456Z,95630.56
2023-02-23T16:25:05.297Z,95628.81
2023-02-23T16:27:34.384Z,95629.72
2023-02-23T16:30:18.903Z,95627.69
2023-02-23T16:32:47.665Z,95633.09
2023-02-23T16:35:18.960Z,95629.00
2023-02-23T16:38:03.485Z,95633.31
2023-02-23T16:40:32.079Z,95630.06
2023-02-23T16:43:00.578Z,95637.66
2023-02-23T16:45:33.855Z,95632.22
2023-02-23T16:48:11.721Z,95636.94
2023-02-23T16:50:41.804Z,95636.78
2023-02-23T16:53:12.091Z,95629.88
2023-02-23T16:55:42.773Z,95629.47
2023-02-23T16:58:12.813Z,95633.91
2023-02-23T17:00:50.212Z,95627.31
2023-02-23T17:03:23.284Z,95631.44
2023-02-23T17:05:52.669Z,95628.19
2023-02-23T17:08:21.193Z,95633.47
2023-02-23T17:10:50.939Z,95629.94
2023-02-23T17:13:22.137Z,95637.63
2023-02-23T17:15:56.612Z,95641.81
2023-02-23T17:18:28.757Z,95647.06
2023-02-23T17:20:58.951Z,95642.88
2023-02-23T17:23:30.298Z,95642.31
2023-02-23T17:25:59.287Z,95647.81
2023-02-23T17:28:27.794Z,95652.50
2023-02-23T17:30:58.069Z,95640.38
2023-02-23T17:33:33.830Z,95640.13
2023-02-23T17:36:03.088Z,95649.00
2023-02-23T17:38:34.994Z,95640.44
2023-02-23T17:41:04.687Z,95645.28
2023-02-23T17:43:35.538Z,95636.59
2023-02-23T17:46:06.190Z,95639.34
2023-02-23T17:48:35.866Z,95640.03
2023-02-23T17:51:07.127Z,95636.50
2023-02-23T17:53:36.116Z,95632.16
2023-02-23T17:56:05.113Z,95640.78
2023-02-23T17:58:34.135Z,95640.78
2023-02-23T18:01:07.261Z,95642.91
2023-02-23T18:03:38.079Z,95633.63
2023-02-23T18:06:08.504Z,95632.09
2023-02-23T18:08:37.295Z,95630.06
2023-02-23T18:11:08.922Z,95639.59
2023-02-23T18:13:38.082Z,95642.28
2023-02-23T18:16:10.864Z,95632.97
2023-02-23T18:18:40.779Z,95639.75
2023-02-23T18:21:13.381Z,95636.34
2023-02-23T18:23:48.100Z,95632.28
2023-02-23T18:26:18.468Z,95629.06
2023-02-23T18:28:50.229Z,95629.13
2023-02-23T18:31:23.902Z,95627.72
2023-02-23T18:33:53.856Z,95635.66
2023-02-23T18:36:24.608Z,95639.16
2023-02-23T18:38:54.687Z,95632.66
2023-02-23T18:41:23.710Z,95636.97
2023-02-23T18:43:52.343Z,95634.53
2023-02-23T18:46:25.919Z,95626.06
2023-02-23T18:48:54.754Z,95636.38
2023-02-23T18:51:23.743Z,95632.34
2023-02-23T18:53:53.121Z,95629.91
2023-02-23T18:56:25.800Z,95630.16
2023-02-23T18:58:56.088Z,95629.69
2023-02-23T19:01:28.067Z,95632.50
2023-02-23T19:04:01.404Z,95631.72
2023-02-23T19:09:14.689Z,95636.34
2023-02-23T19:11:44.278Z,95630.56
2023-02-23T19:14:16.185Z,95638.38
2023-02-23T19:16:46.984Z,95639.38
2023-02-23T19:19:21.433Z,95634.41
2023-02-23T19:21:50.105Z,95643.34
2023-02-23T19:24:20.878Z,95633.19
2023-02-23T19:26:49.523Z,95645.38
2023-02-23T19:29:18.849Z,95645.72
2023-02-23T19:31:50.965Z,95643.66
2023-02-23T19:34:20.117Z,95637.28
2023-02-23T19:36:48.580Z,95637.97
2023-02-23T19:39:17.287Z,95642.41
2023-02-23T19:41:47.309Z,95641.84
2023-02-23T19:44:16.865Z,95635.22
2023-02-23T19:46:46.710Z,95639.03
2023-02-23T19:49:17.664Z,95639.28
2023-02-23T19:51:47.947Z,95633.16
2023-02-23T19:54:16.714Z,95635.34
2023-02-23T19:56:45.998Z,95636.16
2023-02-23T19:59:17.913Z,95632.91
2023-02-23T20:01:51.711Z,95631.97
2023-02-23T20:04:22.720Z,95625.94
2023-02-23T20:06:52.691Z,95625.38
2023-02-23T20:09:27.119Z,95624.66
2023-02-23T20:12:01.821Z,95627.81
2023-02-23T20:14:30.850Z,95627.56
2023-02-23T20:16:59.800Z,95627.69
2023-02-23T20:19:34.228Z,95621.88
2023-02-23T20:22:03.559Z,95619.06
2023-02-23T20:24:34.634Z,95625.13
2023-02-23T20:27:16.957Z,95622.56
2023-02-23T20:29:45.626Z,95623.84
2023-02-23T20:32:14.298Z,95613.13
2023-02-23T20:34:45.802Z,95611.28
2023-02-23T20:37:14.883Z,95612.69
2023-02-23T20:39:47.502Z,95611.84
2023-02-23T20:42:16.245Z,95612.69
2023-02-23T20:44:50.813Z,95607.56
2023-02-23T20:47:19.710Z,95610.13
2023-02-23T20:49:49.810Z,95615.34
2023-02-23T20:52:18.144Z,95612.69
2023-02-23T20:54:52.283Z,95606.06
2023-02-23T20:57:21.148Z,95607.13
2023-02-23T20:59:50.066Z,95608.84
2023-02-23T21:02:19.235Z,95608.03
2023-02-23T21:04:49.579Z,95601.44
2023-02-23T21:07:18.429Z,95607.22
2023-02-23T21:09:47.358Z,95608.16
2023-02-23T21:12:16.637Z,95604.91
2023-02-23T21:14:45.417Z,95599.91
2023-02-23T21:17:14.116Z,95598.44
2023-02-23T21:19:46.804Z,95582.53
2023-02-23T21:22:17.164Z,95593.66
2023-02-23T21:24:46.012Z,95596.22
2023-02-23T21:27:16.870Z,95590.31
2023-02-23T21:29:46.249Z,95589.50
2023-02-23T21:32:18.902Z,95586.25
2023-02-23T21:34:48.912Z,95588.22
2023-02-23T21:37:19.476Z,95584.19
2023-02-23T21:39:50.709Z,95586.94
2023-02-23T21:42:23.101Z,95569.00
2023-02-23T21:44:53.237Z,95582.78
2023-02-23T21:47:22.071Z,95584.63
2023-02-23T21:49:50.851Z,95589.03
2023-02-23T21:52:24.380Z,95573.97
2023-02-23T21:54:54.139Z,95576.53
2023-02-23T21:57:24.685Z,95579.91
2023-02-23T21:59:53.971Z,95584.19
2023-02-23T22:02:22.453Z,95579.78
2023-02-23T22:04:52.175Z,95576.41
2023-02-23T22:07:22.753Z,95577.56
2023-02-23T22:09:51.535Z,95580.34
2023-02-23T22:12:20.263Z,95577.69
2023-02-23T22:14:49.218Z,95573.28
2023-02-23T22:18:15.735Z,95577.34
2023-02-23T22:20:51.319Z,95570.47
2023-02-23T22:23:21.445Z,95573.03
2023-02-23T22:25:50.038Z,95576.53
2023-02-23T22:28:18.939Z,95569.34
2023-02-23T22:30:51.954Z,95578.88
2023-02-23T22:33:21.385Z,95573.06
2023-02-23T22:35:50.600Z,95568.19
2023-02-23T22:38:21.126Z,95565.28
2023-02-23T22:40:57.302Z,95561.69
2023-02-23T22:43:27.416Z,95559.97
2023-02-23T22:45:59.681Z,95555.91
2023-02-23T22:48:28.677Z,95560.75
2023-02-23T22:51:01.683Z,95557.28
2023-02-23T22:53:32.425Z,95554.28
2023-02-23T22:56:01.162Z,95552.19
2023-02-23T22:58:31.789Z,95548.94
2023-02-23T23:01:04.372Z,95547.53
2023-02-23T23:03:35.976Z,95541.66
2023-02-23T23:06:05.895Z,95550.47
2023-02-23T23:08:39.011Z,95549.53
2023-02-23T23:11:10.322Z,95552.06
2023-02-23T23:13:44.790Z,95556.50
2023-02-23T23:16:25.553Z,95554.03
2023-02-23T23:19:04.754Z,95552.19
2023-02-23T23:21:35.132Z,95553.97
2023-02-23T23:24:20.160Z,95547.22
2023-02-23T23:26:52.508Z,95552.44
2023-02-23T23:29:25.924Z,95546.38
2023-02-23T23:31:59.543Z,95547.09
2023-02-23T23:34:28.121Z,95546.50
2023-02-23T23:36:57.508Z,95546.75
2023-02-23T23:39:27.794Z,95548.59
2023-02-23T23:41:56.903Z,95543.97
2023-02-23T23:44:29.627Z,95543.16
2023-02-23T23:46:59.045Z,95542.25
2023-02-23T23:49:27.824Z,95539.78
2023-02-23T23:51:57.745Z,95539.00
2023-02-23T23:54:31.060Z,95538.06
2023-02-23T23:57:01.640Z,95534.13
2023-02-23T23:59:31.894Z,95529.94
